sensor_id;sensor_type;location;lat;lon;timestamp;P1;durP1;ratioP1;P2;durP2;ratioP2
16954;SDS011;8594;52.052;8.354;2024-01-11T00:00:01;63.90;;;24.70;;
16954;SDS011;8594;52.052;8.354;2024-01-11T00:02:30;59.87;;;23.67;;
16954;SDS011;8594;52.052;8.354;2024-01-11T00:04:57;64.00;;;25.47;;
16954;SDS011;8594;52.052;8.354;2024-01-11T00:07:23;63.27;;;22.57;;
16954;SDS011;8594;52.052;8.354;2024-01-11T00:09:50;67.23;;;24.13;;
16954;SDS011;8594;52.052;8.354;2024-01-11T00:12:17;60.80;;;24.33;;
16954;SDS011;8594;52.052;8.354;2024-01-11T00:14:43;64.07;;;23.00;;
16954;SDS011;8594;52.052;8.354;2024-01-11T00:17:10;64.03;;;22.67;;
16954;SDS011;8594;52.052;8.354;2024-01-11T00:19:38;62.13;;;22.83;;
16954;SDS011;8594;52.052;8.354;2024-01-11T00:22:05;59.67;;;23.80;;
16954;SDS011;8594;52.052;8.354;2024-01-11T00:24:32;57.07;;;23.80;;
16954;SDS011;8594;52.052;8.354;2024-01-11T00:26:58;62.83;;;23.53;;
16954;SDS011;8594;52.052;8.354;2024-01-11T00:29:25;65.27;;;25.30;;
16954;SDS011;8594;52.052;8.354;2024-01-11T00:31:53;62.47;;;23.53;;
16954;SDS011;8594;52.052;8.354;2024-01-11T00:34:20;62.90;;;23.43;;
16954;SDS011;8594;52.052;8.354;2024-01-11T00:36:48;60.17;;;23.07;;
16954;SDS011;8594;52.052;8.354;2024-01-11T00:39:15;68.57;;;22.47;;
16954;SDS011;8594;52.052;8.354;2024-01-11T00:41:42;59.30;;;22.80;;
16954;SDS011;8594;52.052;8.354;2024-01-11T00:44:09;58.73;;;24.37;;
16954;SDS011;8594;52.052;8.354;2024-01-11T00:46:35;71.13;;;25.43;;
16954;SDS011;8594;52.052;8.354;2024-01-11T00:49:03;59.30;;;23.33;;
16954;SDS011;8594;52.052;8.354;2024-01-11T00:51:30;65.03;;;24.53;;
16954;SDS011;8594;52.052;8.354;2024-01-11T00:53:58;64.43;;;22.57;;
16954;SDS011;8594;52.052;8.354;2024-01-11T00:56:24;63.37;;;24.10;;
16954;SDS011;8594;52.052;8.354;2024-01-11T00:58:52;63.83;;;23.87;;
16954;SDS011;8594;52.052;8.354;2024-01-11T01:01:19;58.67;;;22.63;;
16954;SDS011;8594;52.052;8.354;2024-01-11T01:03:45;67.13;;;22.60;;
16954;SDS011;8594;52.052;8.354;2024-01-11T01:06:12;61.43;;;25.23;;
16954;SDS011;8594;52.052;8.354;2024-01-11T01:08:39;59.60;;;23.93;;
16954;SDS011;8594;52.052;8.354;2024-01-11T01:11:07;65.10;;;23.27;;
16954;SDS011;8594;52.052;8.354;2024-01-11T01:13:34;65.47;;;22.73;;
16954;SDS011;8594;52.052;8.354;2024-01-11T01:16:00;66.17;;;24.67;;
16954;SDS011;8594;52.052;8.354;2024-01-11T01:18:27;60.07;;;24.20;;
16954;SDS011;8594;52.052;8.354;2024-01-11T01:20:54;65.30;;;24.43;;
16954;SDS011;8594;52.052;8.354;2024-01-11T01:23:22;64.00;;;25.13;;
16954;SDS011;8594;52.052;8.354;2024-01-11T01:25:48;72.83;;;25.03;;
16954;SDS011;8594;52.052;8.354;2024-01-11T01:28:16;62.40;;;22.53;;
16954;SDS011;8594;52.052;8.354;2024-01-11T01:30:43;61.37;;;21.57;;
16954;SDS011;8594;52.052;8.354;2024-01-11T01:33:10;56.27;;;22.97;;
16954;SDS011;8594;52.052;8.354;2024-01-11T01:35:36;60.27;;;24.03;;
16954;SDS011;8594;52.052;8.354;2024-01-11T01:38:03;66.87;;;23.70;;
16954;SDS011;8594;52.052;8.354;2024-01-11T01:40:30;59.20;;;22.33;;
16954;SDS011;8594;52.052;8.354;2024-01-11T01:42:58;64.00;;;23.63;;
16954;SDS011;8594;52.052;8.354;2024-01-11T01:45:27;59.57;;;22.37;;
16954;SDS011;8594;52.052;8.354;2024-01-11T01:47:55;57.50;;;21.17;;
16954;SDS011;8594;52.052;8.354;2024-01-11T01:50:22;62.20;;;23.13;;
16954;SDS011;8594;52.052;8.354;2024-01-11T01:52:49;65.27;;;22.37;;
16954;SDS011;8594;52.052;8.354;2024-01-11T01:55:17;50.67;;;21.17;;
16954;SDS011;8594;52.052;8.354;2024-01-11T01:57:45;54.40;;;21.40;;
16954;SDS011;8594;52.052;8.354;2024-01-11T02:00:14;61.57;;;24.07;;
16954;SDS011;8594;52.052;8.354;2024-01-11T02:02:43;57.37;;;21.70;;
16954;SDS011;8594;52.052;8.354;2024-01-11T02:05:11;61.77;;;23.07;;
16954;SDS011;8594;52.052;8.354;2024-01-11T02:07:40;59.80;;;24.03;;
16954;SDS011;8594;52.052;8.354;2024-01-11T02:10:07;62.67;;;23.47;;
16954;SDS011;8594;52.052;8.354;2024-01-11T02:12:35;63.70;;;23.13;;
16954;SDS011;8594;52.052;8.354;2024-01-11T02:15:02;64.83;;;24.43;;
16954;SDS011;8594;52.052;8.354;2024-01-11T02:17:31;55.73;;;21.80;;
16954;SDS011;8594;52.052;8.354;2024-01-11T02:19:59;62.53;;;23.27;;
16954;SDS011;8594;52.052;8.354;2024-01-11T02:22:28;56.53;;;22.03;;
16954;SDS011;8594;52.052;8.354;2024-01-11T02:25:01;60.13;;;22.10;;
16954;SDS011;8594;52.052;8.354;2024-01-11T02:27:28;51.47;;;21.73;;
16954;SDS011;8594;52.052;8.354;2024-01-11T02:29:55;51.70;;;22.40;;
16954;SDS011;8594;52.052;8.354;2024-01-11T02:32:22;57.97;;;22.43;;
16954;SDS011;8594;52.052;8.354;2024-01-11T02:34:49;66.73;;;23.17;;
16954;SDS011;8594;52.052;8.354;2024-01-11T02:37:16;54.20;;;21.53;;
16954;SDS011;8594;52.052;8.354;2024-01-11T02:39:44;65.83;;;22.30;;
16954;SDS011;8594;52.052;8.354;2024-01-11T02:42:12;68.67;;;24.43;;
16954;SDS011;8594;52.052;8.354;2024-01-11T02:44:39;67.17;;;24.43;;
16954;SDS011;8594;52.052;8.354;2024-01-11T02:47:06;56.57;;;21.00;;
16954;SDS011;8594;52.052;8.354;2024-01-11T02:49:32;58.23;;;22.13;;
16954;SDS011;8594;52.052;8.354;2024-01-11T02:51:59;62.27;;;24.80;;
16954;SDS011;8594;52.052;8.354;2024-01-11T02:54:26;70.37;;;24.07;;
16954;SDS011;8594;52.052;8.354;2024-01-11T02:56:52;54.47;;;21.00;;
16954;SDS011;8594;52.052;8.354;2024-01-11T02:59:20;60.47;;;22.77;;
16954;SDS011;8594;52.052;8.354;2024-01-11T03:01:47;58.00;;;22.30;;
16954;SDS011;8594;52.052;8.354;2024-01-11T03:04:14;53.77;;;22.17;;
16954;SDS011;8594;52.052;8.354;2024-01-11T03:06:40;52.67;;;21.47;;
16954;SDS011;8594;52.052;8.354;2024-01-11T03:09:07;58.37;;;22.27;;
16954;SDS011;8594;52.052;8.354;2024-01-11T03:11:34;53.17;;;20.80;;
16954;SDS011;8594;52.052;8.354;2024-01-11T03:14:02;63.07;;;22.10;;
16954;SDS011;8594;52.052;8.354;2024-01-11T03:16:30;61.60;;;22.30;;
16954;SDS011;8594;52.052;8.354;2024-01-11T03:18:57;57.80;;;21.23;;
16954;SDS011;8594;52.052;8.354;2024-01-11T03:21:23;56.17;;;22.13;;
16954;SDS011;8594;52.052;8.354;2024-01-11T03:23:50;57.60;;;21.57;;
16954;SDS011;8594;52.052;8.354;2024-01-11T03:26:17;58.47;;;22.57;;
16954;SDS011;8594;52.052;8.354;2024-01-11T03:28:44;55.80;;;22.70;;
16954;SDS011;8594;52.052;8.354;2024-01-11T03:31:11;54.73;;;20.57;;
16954;SDS011;8594;52.052;8.354;2024-01-11T03:33:39;54.33;;;21.83;;
16954;SDS011;8594;52.052;8.354;2024-01-11T03:36:07;49.43;;;20.00;;
16954;SDS011;8594;52.052;8.354;2024-01-11T03:38:34;54.57;;;20.77;;
16954;SDS011;8594;52.052;8.354;2024-01-11T03:41:01;58.30;;;22.47;;
16954;SDS011;8594;52.052;8.354;2024-01-11T03:43:28;61.47;;;20.73;;
16954;SDS011;8594;52.052;8.354;2024-01-11T03:45:54;51.33;;;19.87;;
16954;SDS011;8594;52.052;8.354;2024-01-11T03:48:21;57.23;;;20.87;;
16954;SDS011;8594;52.052;8.354;2024-01-11T03:50:49;50.40;;;20.30;;
16954;SDS011;8594;52.052;8.354;2024-01-11T03:53:16;57.90;;;21.77;;
16954;SDS011;8594;52.052;8.354;2024-01-11T03:55:43;55.27;;;20.93;;
16954;SDS011;8594;52.052;8.354;2024-01-11T03:58:10;50.87;;;20.93;;
16954;SDS011;8594;52.052;8.354;2024-01-11T04:00:36;51.70;;;21.10;;
16954;SDS011;8594;52.052;8.354;2024-01-11T04:03:03;48.73;;;20.77;;
16954;SDS011;8594;52.052;8.354;2024-01-11T04:05:32;55.97;;;21.03;;
16954;SDS011;8594;52.052;8.354;2024-01-11T04:08:00;58.30;;;20.83;;
16954;SDS011;8594;52.052;8.354;2024-01-11T04:10:30;54.17;;;20.27;;
16954;SDS011;8594;52.052;8.354;2024-01-11T04:12:57;52.70;;;20.73;;
16954;SDS011;8594;52.052;8.354;2024-01-11T04:15:24;55.13;;;21.80;;
16954;SDS011;8594;52.052;8.354;2024-01-11T04:17:51;54.67;;;22.17;;
16954;SDS011;8594;52.052;8.354;2024-01-11T04:20:18;60.73;;;22.97;;
16954;SDS011;8594;52.052;8.354;2024-01-11T04:22:45;60.93;;;22.57;;
16954;SDS011;8594;52.052;8.354;2024-01-11T04:25:13;62.20;;;24.53;;
16954;SDS011;8594;52.052;8.354;2024-01-11T04:27:40;59.00;;;22.37;;
16954;SDS011;8594;52.052;8.354;2024-01-11T04:30:07;60.00;;;22.87;;
16954;SDS011;8594;52.052;8.354;2024-01-11T04:32:34;58.13;;;22.43;;
16954;SDS011;8594;52.052;8.354;2024-01-11T04:35:02;64.80;;;23.47;;
16954;SDS011;8594;52.052;8.354;2024-01-11T04:37:29;58.80;;;22.60;;
16954;SDS011;8594;52.052;8.354;2024-01-11T04:39:57;67.20;;;22.43;;
16954;SDS011;8594;52.052;8.354;2024-01-11T04:42:26;58.37;;;23.37;;
16954;SDS011;8594;52.052;8.354;2024-01-11T04:44:53;56.60;;;21.37;;
16954;SDS011;8594;52.052;8.354;2024-01-11T04:47:20;50.47;;;20.70;;
16954;SDS011;8594;52.052;8.354;2024-01-11T04:49:46;54.77;;;22.07;;
16954;SDS011;8594;52.052;8.354;2024-01-11T04:52:13;56.93;;;22.20;;
16954;SDS011;8594;52.052;8.354;2024-01-11T04:54:40;61.60;;;22.00;;
16954;SDS011;8594;52.052;8.354;2024-01-11T04:57:06;58.27;;;21.87;;
16954;SDS011;8594;52.052;8.354;2024-01-11T04:59:34;54.53;;;20.80;;
16954;SDS011;8594;52.052;8.354;2024-01-11T05:02:01;60.73;;;21.23;;
16954;SDS011;8594;52.052;8.354;2024-01-11T05:04:28;58.33;;;20.97;;
16954;SDS011;8594;52.052;8.354;2024-01-11T05:06:55;57.47;;;20.97;;
16954;SDS011;8594;52.052;8.354;2024-01-11T05:09:22;53.07;;;21.33;;
16954;SDS011;8594;52.052;8.354;2024-01-11T05:11:48;54.13;;;20.60;;
16954;SDS011;8594;52.052;8.354;2024-01-11T05:14:15;54.53;;;21.00;;
16954;SDS011;8594;52.052;8.354;2024-01-11T05:16:43;56.33;;;21.93;;
16954;SDS011;8594;52.052;8.354;2024-01-11T05:19:10;60.27;;;22.57;;
16954;SDS011;8594;52.052;8.354;2024-01-11T05:21:36;54.20;;;21.47;;
16954;SDS011;8594;52.052;8.354;2024-01-11T05:24:03;57.57;;;22.40;;
16954;SDS011;8594;52.052;8.354;2024-01-11T05:26:31;59.67;;;21.77;;
16954;SDS011;8594;52.052;8.354;2024-01-11T05:28:58;54.87;;;21.67;;
16954;SDS011;8594;52.052;8.354;2024-01-11T05:31:25;49.43;;;21.33;;
16954;SDS011;8594;52.052;8.354;2024-01-11T05:33:53;51.00;;;20.47;;
16954;SDS011;8594;52.052;8.354;2024-01-11T05:36:19;46.60;;;19.70;;
16954;SDS011;8594;52.052;8.354;2024-01-11T05:38:46;64.13;;;22.77;;
16954;SDS011;8594;52.052;8.354;2024-01-11T05:41:13;57.10;;;21.53;;
16954;SDS011;8594;52.052;8.354;2024-01-11T05:43:40;48.07;;;20.83;;
16954;SDS011;8594;52.052;8.354;2024-01-11T05:46:07;54.50;;;22.70;;
16954;SDS011;8594;52.052;8.354;2024-01-11T05:48:34;59.33;;;21.17;;
16954;SDS011;8594;52.052;8.354;2024-01-11T05:51:02;51.10;;;20.57;;
16954;SDS011;8594;52.052;8.354;2024-01-11T05:53:29;51.60;;;21.43;;
16954;SDS011;8594;52.052;8.354;2024-01-11T05:56:00;55.70;;;21.83;;
16954;SDS011;8594;52.052;8.354;2024-01-11T05:58:28;53.20;;;20.43;;
16954;SDS011;8594;52.052;8.354;2024-01-11T06:00:54;65.93;;;24.03;;
16954;SDS011;8594;52.052;8.354;2024-01-11T06:03:22;52.83;;;22.83;;
16954;SDS011;8594;52.052;8.354;2024-01-11T06:05:48;65.70;;;25.57;;
16954;SDS011;8594;52.052;8.354;2024-01-11T06:08:16;64.23;;;23.97;;
16954;SDS011;8594;52.052;8.354;2024-01-11T06:10:43;68.10;;;26.67;;
16954;SDS011;8594;52.052;8.354;2024-01-11T06:13:10;59.23;;;25.27;;
16954;SDS011;8594;52.052;8.354;2024-01-11T06:15:37;62.00;;;23.67;;
16954;SDS011;8594;52.052;8.354;2024-01-11T06:18:03;53.47;;;21.77;;
16954;SDS011;8594;52.052;8.354;2024-01-11T06:20:30;52.07;;;21.83;;
16954;SDS011;8594;52.052;8.354;2024-01-11T06:22:57;50.53;;;20.93;;
16954;SDS011;8594;52.052;8.354;2024-01-11T06:25:25;57.97;;;21.87;;
16954;SDS011;8594;52.052;8.354;2024-01-11T06:27:52;48.37;;;20.43;;
16954;SDS011;8594;52.052;8.354;2024-01-11T06:30:20;56.50;;;21.53;;
16954;SDS011;8594;52.052;8.354;2024-01-11T06:32:47;57.93;;;20.97;;
16954;SDS011;8594;52.052;8.354;2024-01-11T06:35:14;60.93;;;22.07;;
16954;SDS011;8594;52.052;8.354;2024-01-11T06:37:41;53.50;;;20.57;;
16954;SDS011;8594;52.052;8.354;2024-01-11T06:40:08;50.90;;;18.77;;
16954;SDS011;8594;52.052;8.354;2024-01-11T06:42:36;49.53;;;19.70;;
16954;SDS011;8594;52.052;8.354;2024-01-11T06:45:03;51.10;;;18.87;;
16954;SDS011;8594;52.052;8.354;2024-01-11T06:47:31;52.03;;;19.63;;
16954;SDS011;8594;52.052;8.354;2024-01-11T06:49:59;53.37;;;19.83;;
16954;SDS011;8594;52.052;8.354;2024-01-11T06:52:25;62.13;;;22.73;;
16954;SDS011;8594;52.052;8.354;2024-01-11T06:54:52;57.30;;;21.43;;
16954;SDS011;8594;52.052;8.354;2024-01-11T06:57:19;56.40;;;22.30;;
16954;SDS011;8594;52.052;8.354;2024-01-11T06:59:49;60.33;;;23.60;;
16954;SDS011;8594;52.052;8.354;2024-01-11T07:02:15;51.73;;;22.53;;
16954;SDS011;8594;52.052;8.354;2024-01-11T07:04:43;71.43;;;25.17;;
16954;SDS011;8594;52.052;8.354;2024-01-11T07:07:10;63.30;;;25.47;;
16954;SDS011;8594;52.052;8.354;2024-01-11T07:09:38;64.40;;;24.20;;
16954;SDS011;8594;52.052;8.354;2024-01-11T07:12:05;59.93;;;23.60;;
16954;SDS011;8594;52.052;8.354;2024-01-11T07:14:33;60.80;;;24.27;;
16954;SDS011;8594;52.052;8.354;2024-01-11T07:17:01;61.70;;;22.77;;
16954;SDS011;8594;52.052;8.354;2024-01-11T07:19:29;68.83;;;24.33;;
16954;SDS011;8594;52.052;8.354;2024-01-11T07:21:55;59.20;;;23.13;;
16954;SDS011;8594;52.052;8.354;2024-01-11T07:24:22;57.57;;;24.10;;
16954;SDS011;8594;52.052;8.354;2024-01-11T07:26:50;56.80;;;22.40;;
16954;SDS011;8594;52.052;8.354;2024-01-11T07:29:18;56.20;;;22.03;;
16954;SDS011;8594;52.052;8.354;2024-01-11T07:31:44;55.17;;;22.47;;
16954;SDS011;8594;52.052;8.354;2024-01-11T07:34:12;57.33;;;22.77;;
16954;SDS011;8594;52.052;8.354;2024-01-11T07:36:39;66.97;;;24.13;;
16954;SDS011;8594;52.052;8.354;2024-01-11T07:39:06;70.13;;;24.00;;
16954;SDS011;8594;52.052;8.354;2024-01-11T07:41:33;61.33;;;24.37;;
16954;SDS011;8594;52.052;8.354;2024-01-11T07:43:59;57.83;;;23.83;;
16954;SDS011;8594;52.052;8.354;2024-01-11T07:46:26;65.90;;;25.67;;
16954;SDS011;8594;52.052;8.354;2024-01-11T07:48:53;58.60;;;22.07;;
16954;SDS011;8594;52.052;8.354;2024-01-11T07:51:21;58.53;;;24.47;;
16954;SDS011;8594;52.052;8.354;2024-01-11T07:53:47;58.60;;;22.53;;
16954;SDS011;8594;52.052;8.354;2024-01-11T07:56:14;55.43;;;23.63;;
16954;SDS011;8594;52.052;8.354;2024-01-11T07:58:42;59.50;;;22.37;;
16954;SDS011;8594;52.052;8.354;2024-01-11T08:01:08;57.27;;;21.97;;
16954;SDS011;8594;52.052;8.354;2024-01-11T08:03:36;63.87;;;22.40;;
16954;SDS011;8594;52.052;8.354;2024-01-11T08:06:03;53.33;;;23.17;;
16954;SDS011;8594;52.052;8.354;2024-01-11T08:08:33;62.97;;;23.37;;
16954;SDS011;8594;52.052;8.354;2024-01-11T08:11:01;55.07;;;22.00;;
16954;SDS011;8594;52.052;8.354;2024-01-11T08:13:28;55.00;;;21.27;;
16954;SDS011;8594;52.052;8.354;2024-01-11T08:15:56;57.13;;;21.70;;
16954;SDS011;8594;52.052;8.354;2024-01-11T08:18:23;51.77;;;20.80;;
16954;SDS011;8594;52.052;8.354;2024-01-11T08:20:51;50.67;;;20.77;;
16954;SDS011;8594;52.052;8.354;2024-01-11T08:23:18;53.10;;;21.70;;
16954;SDS011;8594;52.052;8.354;2024-01-11T08:25:47;45.70;;;19.60;;
16954;SDS011;8594;52.052;8.354;2024-01-11T08:28:13;49.37;;;21.33;;
16954;SDS011;8594;52.052;8.354;2024-01-11T08:30:40;53.00;;;22.37;;
16954;SDS011;8594;52.052;8.354;2024-01-11T08:33:07;53.33;;;21.27;;
16954;SDS011;8594;52.052;8.354;2024-01-11T08:35:34;49.37;;;21.57;;
16954;SDS011;8594;52.052;8.354;2024-01-11T08:38:01;50.03;;;20.80;;
16954;SDS011;8594;52.052;8.354;2024-01-11T08:40:29;47.23;;;19.33;;
16954;SDS011;8594;52.052;8.354;2024-01-11T08:42:57;49.27;;;19.93;;
16954;SDS011;8594;52.052;8.354;2024-01-11T08:45:24;46.50;;;19.70;;
16954;SDS011;8594;52.052;8.354;2024-01-11T08:47:51;51.57;;;20.20;;
16954;SDS011;8594;52.052;8.354;2024-01-11T08:50:17;45.17;;;19.40;;
16954;SDS011;8594;52.052;8.354;2024-01-11T08:52:46;46.20;;;20.67;;
16954;SDS011;8594;52.052;8.354;2024-01-11T08:55:13;44.80;;;19.60;;
16954;SDS011;8594;52.052;8.354;2024-01-11T08:57:40;46.33;;;18.93;;
16954;SDS011;8594;52.052;8.354;2024-01-11T09:00:09;51.43;;;20.33;;
16954;SDS011;8594;52.052;8.354;2024-01-11T09:02:37;50.60;;;21.00;;
16954;SDS011;8594;52.052;8.354;2024-01-11T09:05:04;55.23;;;20.00;;
16954;SDS011;8594;52.052;8.354;2024-01-11T09:07:32;44.37;;;18.90;;
16954;SDS011;8594;52.052;8.354;2024-01-11T09:09:59;44.90;;;19.43;;
16954;SDS011;8594;52.052;8.354;2024-01-11T09:12:25;44.93;;;19.27;;
16954;SDS011;8594;52.052;8.354;2024-01-11T09:14:52;39.57;;;18.77;;
16954;SDS011;8594;52.052;8.354;2024-01-11T09:17:21;45.03;;;18.70;;
16954;SDS011;8594;52.052;8.354;2024-01-11T09:19:47;46.83;;;20.00;;
16954;SDS011;8594;52.052;8.354;2024-01-11T09:22:14;44.07;;;18.10;;
16954;SDS011;8594;52.052;8.354;2024-01-11T09:24:41;46.20;;;19.83;;
16954;SDS011;8594;52.052;8.354;2024-01-11T09:27:08;45.10;;;19.10;;
16954;SDS011;8594;52.052;8.354;2024-01-11T09:29:34;43.53;;;17.90;;
16954;SDS011;8594;52.052;8.354;2024-01-11T09:32:01;41.97;;;18.33;;
16954;SDS011;8594;52.052;8.354;2024-01-11T09:34:30;44.40;;;17.77;;
16954;SDS011;8594;52.052;8.354;2024-01-11T09:36:57;42.43;;;18.73;;
16954;SDS011;8594;52.052;8.354;2024-01-11T09:39:24;46.43;;;19.53;;
16954;SDS011;8594;52.052;8.354;2024-01-11T09:41:53;56.30;;;20.03;;
16954;SDS011;8594;52.052;8.354;2024-01-11T09:44:27;40.00;;;18.70;;
16954;SDS011;8594;52.052;8.354;2024-01-11T09:46:55;45.47;;;19.07;;
16954;SDS011;8594;52.052;8.354;2024-01-11T09:49:26;38.03;;;17.60;;
16954;SDS011;8594;52.052;8.354;2024-01-11T09:51:57;43.37;;;17.73;;
16954;SDS011;8594;52.052;8.354;2024-01-11T09:54:23;43.03;;;18.90;;
16954;SDS011;8594;52.052;8.354;2024-01-11T09:56:52;35.17;;;17.00;;
16954;SDS011;8594;52.052;8.354;2024-01-11T09:59:21;37.70;;;16.60;;
16954;SDS011;8594;52.052;8.354;2024-01-11T10:01:49;40.27;;;18.03;;
16954;SDS011;8594;52.052;8.354;2024-01-11T10:04:17;37.80;;;16.67;;
16954;SDS011;8594;52.052;8.354;2024-01-11T10:06:45;39.30;;;17.03;;
16954;SDS011;8594;52.052;8.354;2024-01-11T10:09:13;35.37;;;15.53;;
16954;SDS011;8594;52.052;8.354;2024-01-11T10:11:41;39.17;;;17.20;;
16954;SDS011;8594;52.052;8.354;2024-01-11T10:14:10;37.30;;;16.90;;
16954;SDS011;8594;52.052;8.354;2024-01-11T10:16:38;34.47;;;15.27;;
16954;SDS011;8594;52.052;8.354;2024-01-11T10:19:05;35.83;;;15.60;;
16954;SDS011;8594;52.052;8.354;2024-01-11T10:21:32;30.70;;;14.03;;
16954;SDS011;8594;52.052;8.354;2024-01-11T10:24:00;31.93;;;14.30;;
16954;SDS011;8594;52.052;8.354;2024-01-11T10:26:29;31.27;;;12.90;;
16954;SDS011;8594;52.052;8.354;2024-01-11T10:28:58;24.93;;;11.77;;
16954;SDS011;8594;52.052;8.354;2024-01-11T10:31:28;31.67;;;12.60;;
16954;SDS011;8594;52.052;8.354;2024-01-11T10:33:55;26.80;;;12.33;;
16954;SDS011;8594;52.052;8.354;2024-01-11T10:36:22;27.43;;;12.53;;
16954;SDS011;8594;52.052;8.354;2024-01-11T10:38:49;30.90;;;11.53;;
16954;SDS011;8594;52.052;8.354;2024-01-11T10:41:20;23.97;;;10.20;;
16954;SDS011;8594;52.052;8.354;2024-01-11T10:43:47;28.03;;;11.03;;
16954;SDS011;8594;52.052;8.354;2024-01-11T10:46:15;28.27;;;11.37;;
16954;SDS011;8594;52.052;8.354;2024-01-11T10:48:48;21.23;;;10.03;;
16954;SDS011;8594;52.052;8.354;2024-01-11T10:51:22;23.90;;;11.00;;
16954;SDS011;8594;52.052;8.354;2024-01-11T10:53:54;23.10;;;9.83;;
16954;SDS011;8594;52.052;8.354;2024-01-11T10:56:22;24.07;;;11.00;;
16954;SDS011;8594;52.052;8.354;2024-01-11T10:58:51;23.07;;;10.57;;
16954;SDS011;8594;52.052;8.354;2024-01-11T11:01:20;26.83;;;11.10;;
16954;SDS011;8594;52.052;8.354;2024-01-11T11:03:50;25.20;;;11.17;;
16954;SDS011;8594;52.052;8.354;2024-01-11T11:06:20;25.03;;;10.27;;
16954;SDS011;8594;52.052;8.354;2024-01-11T11:08:49;27.93;;;11.63;;
16954;SDS011;8594;52.052;8.354;2024-01-11T11:11:18;27.90;;;11.03;;
16954;SDS011;8594;52.052;8.354;2024-01-11T11:13:48;20.07;;;8.20;;
16954;SDS011;8594;52.052;8.354;2024-01-11T11:16:18;18.43;;;7.70;;
16954;SDS011;8594;52.052;8.354;2024-01-11T11:18:45;21.97;;;9.17;;
16954;SDS011;8594;52.052;8.354;2024-01-11T11:21:11;16.70;;;7.90;;
16954;SDS011;8594;52.052;8.354;2024-01-11T11:23:38;18.77;;;8.47;;
16954;SDS011;8594;52.052;8.354;2024-01-11T11:26:05;19.93;;;8.27;;
16954;SDS011;8594;52.052;8.354;2024-01-11T11:28:33;19.17;;;7.53;;
16954;SDS011;8594;52.052;8.354;2024-01-11T11:31:03;18.20;;;7.53;;
16954;SDS011;8594;52.052;8.354;2024-01-11T11:33:29;20.57;;;8.93;;
16954;SDS011;8594;52.052;8.354;2024-01-11T11:35:57;21.43;;;9.10;;
16954;SDS011;8594;52.052;8.354;2024-01-11T11:38:25;17.80;;;8.07;;
16954;SDS011;8594;52.052;8.354;2024-01-11T11:40:54;22.83;;;8.93;;
16954;SDS011;8594;52.052;8.354;2024-01-11T11:43:25;22.47;;;9.13;;
16954;SDS011;8594;52.052;8.354;2024-01-11T11:45:54;25.20;;;9.07;;
16954;SDS011;8594;52.052;8.354;2024-01-11T11:51:20;21.20;;;8.83;;
16954;SDS011;8594;52.052;8.354;2024-01-11T11:53:48;24.33;;;9.10;;
16954;SDS011;8594;52.052;8.354;2024-01-11T11:56:17;23.87;;;8.90;;
16954;SDS011;8594;52.052;8.354;2024-01-11T11:58:46;20.73;;;8.93;;
16954;SDS011;8594;52.052;8.354;2024-01-11T12:01:14;22.53;;;9.40;;
16954;SDS011;8594;52.052;8.354;2024-01-11T12:03:43;23.87;;;9.27;;
16954;SDS011;8594;52.052;8.354;2024-01-11T12:06:15;26.17;;;9.27;;
16954;SDS011;8594;52.052;8.354;2024-01-11T12:08:44;20.90;;;9.47;;
16954;SDS011;8594;52.052;8.354;2024-01-11T12:11:14;23.13;;;9.53;;
16954;SDS011;8594;52.052;8.354;2024-01-11T12:13:44;21.10;;;9.70;;
16954;SDS011;8594;52.052;8.354;2024-01-11T12:16:12;20.10;;;9.10;;
16954;SDS011;8594;52.052;8.354;2024-01-11T12:18:39;18.97;;;7.77;;
16954;SDS011;8594;52.052;8.354;2024-01-11T12:21:07;22.47;;;9.27;;
16954;SDS011;8594;52.052;8.354;2024-01-11T12:23:36;23.40;;;9.20;;
16954;SDS011;8594;52.052;8.354;2024-01-11T12:26:05;24.77;;;9.00;;
16954;SDS011;8594;52.052;8.354;2024-01-11T12:28:37;20.03;;;8.70;;
16954;SDS011;8594;52.052;8.354;2024-01-11T12:31:05;18.77;;;8.17;;
16954;SDS011;8594;52.052;8.354;2024-01-11T12:33:32;22.37;;;8.37;;
16954;SDS011;8594;52.052;8.354;2024-01-11T12:36:03;24.97;;;9.80;;
16954;SDS011;8594;52.052;8.354;2024-01-11T12:38:33;25.40;;;11.57;;
16954;SDS011;8594;52.052;8.354;2024-01-11T12:41:01;31.73;;;10.97;;
16954;SDS011;8594;52.052;8.354;2024-01-11T12:43:28;26.33;;;9.80;;
16954;SDS011;8594;52.052;8.354;2024-01-11T12:45:55;23.27;;;8.63;;
16954;SDS011;8594;52.052;8.354;2024-01-11T12:48:22;21.67;;;9.20;;
16954;SDS011;8594;52.052;8.354;2024-01-11T12:50:49;21.53;;;8.80;;
16954;SDS011;8594;52.052;8.354;2024-01-11T12:53:19;24.07;;;9.37;;
16954;SDS011;8594;52.052;8.354;2024-01-11T12:55:47;23.53;;;9.80;;
16954;SDS011;8594;52.052;8.354;2024-01-11T12:58:28;20.87;;;9.40;;
16954;SDS011;8594;52.052;8.354;2024-01-11T13:00:55;23.27;;;10.50;;
16954;SDS011;8594;52.052;8.354;2024-01-11T13:03:22;20.20;;;9.37;;
16954;SDS011;8594;52.052;8.354;2024-01-11T13:05:52;20.10;;;8.80;;
16954;SDS011;8594;52.052;8.354;2024-01-11T13:08:19;19.27;;;8.33;;
16954;SDS011;8594;52.052;8.354;2024-01-11T13:10:47;21.43;;;9.47;;
16954;SDS011;8594;52.052;8.354;2024-01-11T13:13:13;22.63;;;8.87;;
16954;SDS011;8594;52.052;8.354;2024-01-11T13:15:40;19.93;;;10.17;;
16954;SDS011;8594;52.052;8.354;2024-01-11T13:18:07;22.80;;;9.30;;
16954;SDS011;8594;52.052;8.354;2024-01-11T13:20:34;22.77;;;9.63;;
16954;SDS011;8594;52.052;8.354;2024-01-11T13:23:13;20.33;;;10.20;;
16954;SDS011;8594;52.052;8.354;2024-01-11T13:25:44;22.90;;;11.47;;
16954;SDS011;8594;52.052;8.354;2024-01-11T13:28:14;24.30;;;10.43;;
16954;SDS011;8594;52.052;8.354;2024-01-11T13:30:42;21.23;;;9.80;;
16954;SDS011;8594;52.052;8.354;2024-01-11T13:33:10;28.63;;;11.13;;
16954;SDS011;8594;52.052;8.354;2024-01-11T13:35:38;28.43;;;12.40;;
16954;SDS011;8594;52.052;8.354;2024-01-11T13:38:07;24.53;;;11.70;;
16954;SDS011;8594;52.052;8.354;2024-01-11T13:40:35;24.23;;;10.80;;
16954;SDS011;8594;52.052;8.354;2024-01-11T13:43:04;26.70;;;11.03;;
16954;SDS011;8594;52.052;8.354;2024-01-11T13:45:31;28.53;;;11.33;;
16954;SDS011;8594;52.052;8.354;2024-01-11T13:48:01;26.47;;;10.50;;
16954;SDS011;8594;52.052;8.354;2024-01-11T13:50:29;23.57;;;10.77;;
16954;SDS011;8594;52.052;8.354;2024-01-11T13:52:56;22.63;;;10.80;;
16954;SDS011;8594;52.052;8.354;2024-01-11T13:55:23;22.50;;;9.83;;
16954;SDS011;8594;52.052;8.354;2024-01-11T13:57:50;23.17;;;9.60;;
16954;SDS011;8594;52.052;8.354;2024-01-11T14:00:19;26.90;;;10.53;;
16954;SDS011;8594;52.052;8.354;2024-01-11T14:02:46;22.07;;;9.33;;
16954;SDS011;8594;52.052;8.354;2024-01-11T14:05:14;22.33;;;10.20;;
16954;SDS011;8594;52.052;8.354;2024-01-11T14:07:42;23.23;;;9.77;;
16954;SDS011;8594;52.052;8.354;2024-01-11T14:10:11;26.73;;;10.47;;
16954;SDS011;8594;52.052;8.354;2024-01-11T14:12:39;23.63;;;9.97;;
16954;SDS011;8594;52.052;8.354;2024-01-11T14:15:07;27.17;;;10.87;;
16954;SDS011;8594;52.052;8.354;2024-01-11T14:17:38;18.13;;;9.40;;
16954;SDS011;8594;52.052;8.354;2024-01-11T14:20:06;23.77;;;9.43;;
16954;SDS011;8594;52.052;8.354;2024-01-11T14:22:37;20.83;;;9.43;;
16954;SDS011;8594;52.052;8.354;2024-01-11T14:25:04;27.60;;;11.17;;
16954;SDS011;8594;52.052;8.354;2024-01-11T14:27:33;27.00;;;10.73;;
16954;SDS011;8594;52.052;8.354;2024-01-11T14:29:59;23.07;;;9.50;;
16954;SDS011;8594;52.052;8.354;2024-01-11T14:32:30;24.43;;;10.80;;
16954;SDS011;8594;52.052;8.354;2024-01-11T14:34:58;26.47;;;10.93;;
16954;SDS011;8594;52.052;8.354;2024-01-11T14:37:28;29.00;;;10.90;;
16954;SDS011;8594;52.052;8.354;2024-01-11T14:39:55;24.93;;;11.40;;